createdAt,value
2023-05-21T00:00:44.041Z,14.82
2023-05-21T00:03:14.299Z,14.79
2023-05-21T00:05:41.653Z,14.76
2023-05-21T00:08:08.940Z,14.70
2023-05-21T00:10:36.025Z,14.65
2023-05-21T00:13:03.261Z,14.60
2023-05-21T00:15:30.483Z,14.56
2023-05-21T00:17:57.705Z,14.52
2023-05-21T00:20:24.911Z,14.49
2023-05-21T00:22:52.092Z,14.45
2023-05-21T00:25:19.351Z,14.40
2023-05-21T00:27:46.610Z,14.34
2023-05-21T00:30:13.709Z,14.25
2023-05-21T00:32:41.315Z,14.16
2023-05-21T00:35:08.899Z,14.07
2023-05-21T00:37:35.946Z,14.01
2023-05-21T00:40:05.862Z,13.95
2023-05-21T00:42:33.867Z,13.91
2023-05-21T00:45:00.969Z,13.87
2023-05-21T00:47:29.957Z,13.87
2023-05-21T00:49:57.329Z,13.89
2023-05-21T00:52:27.232Z,13.89
2023-05-21T00:54:55.219Z,13.89
2023-05-21T00:57:25.553Z,13.88
2023-05-21T00:59:53.695Z,13.88
2023-05-21T01:02:24.549Z,13.85
2023-05-21T01:04:55.568Z,13.83
2023-05-21T01:07:22.693Z,13.80
2023-05-21T01:09:49.871Z,13.77
2023-05-21T01:12:18.964Z,13.76
2023-05-21T01:14:46.286Z,13.76
2023-05-21T01:17:14.256Z,13.76
2023-05-21T01:19:44.757Z,13.76
2023-05-21T01:22:14.509Z,13.80
2023-05-21T01:24:41.890Z,13.84
2023-05-21T01:27:10.733Z,13.88
2023-05-21T01:29:37.924Z,13.87
2023-05-21T01:32:14.866Z,13.87
2023-05-21T01:34:57.152Z,13.87
2023-05-21T01:37:47.966Z,13.87
2023-05-21T01:40:22.822Z,13.87
2023-05-21T01:42:49.932Z,13.88
2023-05-21T01:45:18.537Z,13.90
2023-05-21T01:47:48.592Z,13.92
2023-05-21T01:50:16.800Z,13.95
2023-05-21T01:52:53.284Z,13.98
2023-05-21T01:55:30.986Z,14.01
2023-05-21T01:58:01.986Z,14.02
2023-05-21T02:00:31.137Z,14.00
2023-05-21T02:02:58.983Z,13.99
2023-05-21T02:05:26.347Z,13.99
2023-05-21T02:07:55.180Z,14.01
2023-05-21T02:10:23.242Z,14.00
2023-05-21T02:12:50.383Z,14.00
2023-05-21T02:15:20.389Z,14.00
2023-05-21T02:17:47.769Z,14.01
2023-05-21T02:20:15.093Z,14.04
2023-05-21T02:22:44.779Z,14.08
2023-05-21T02:25:13.949Z,14.13
2023-05-21T02:27:42.817Z,14.18
2023-05-21T02:30:12.159Z,14.23
2023-05-21T02:32:43.314Z,14.29
2023-05-21T02:35:12.809Z,14.36
2023-05-21T02:37:40.921Z,14.43
2023-05-21T02:40:10.048Z,14.50
2023-05-21T02:42:40.100Z,14.58
2023-05-21T02:45:11.662Z,14.65
2023-05-21T02:47:39.761Z,14.72
2023-05-21T02:50:08.850Z,14.80
2023-05-21T02:52:40.101Z,14.88
2023-05-21T02:55:07.964Z,14.96
2023-05-21T02:57:35.633Z,15.05
2023-05-21T03:00:06.170Z,15.14
2023-05-21T03:02:34.049Z,15.26
2023-05-21T03:05:01.357Z,15.38
2023-05-21T03:07:28.567Z,15.50
2023-05-21T03:09:55.871Z,15.62
2023-05-21T03:12:23.260Z,15.69
2023-05-21T03:14:51.620Z,15.73
2023-05-21T03:17:20.854Z,15.77
2023-05-21T03:19:49.371Z,15.83
2023-05-21T03:22:16.854Z,15.94
2023-05-21T03:24:45.377Z,16.12
2023-05-21T03:27:12.885Z,16.34
2023-05-21T03:29:40.409Z,16.57
2023-05-21T03:32:08.144Z,16.81
2023-05-21T03:34:35.801Z,17.04
2023-05-21T03:37:03.086Z,17.29
2023-05-21T03:39:30.332Z,17.56
2023-05-21T03:41:57.583Z,17.78
2023-05-21T03:44:35.634Z,17.92
2023-05-21T03:47:16.811Z,18.06
2023-05-21T03:49:44.017Z,18.19
2023-05-21T03:52:11.383Z,18.39
2023-05-21T03:54:38.489Z,18.61
2023-05-21T03:57:07.661Z,18.81
2023-05-21T03:59:35.056Z,19.00
2023-05-21T04:02:02.405Z,19.22
2023-05-21T04:04:29.901Z,19.41
2023-05-21T04:06:57.088Z,19.65
2023-05-21T04:09:24.330Z,19.88
2023-05-21T04:11:52.471Z,20.09
2023-05-21T04:14:20.918Z,20.28
2023-05-21T04:16:49.423Z,20.49
2023-05-21T04:19:17.363Z,20.63
2023-05-21T04:21:45.330Z,20.70
2023-05-21T04:24:15.376Z,20.83
2023-05-21T04:26:50.144Z,20.90
2023-05-21T04:29:21.345Z,20.90
2023-05-21T04:31:49.909Z,20.94
2023-05-21T04:34:18.123Z,20.94
2023-05-21T04:36:46.141Z,20.87
2023-05-21T04:39:14.854Z,20.86
2023-05-21T04:41:41.996Z,20.78
2023-05-21T04:44:09.924Z,20.73
2023-05-21T04:46:39.654Z,20.75
2023-05-21T04:49:29.037Z,20.83
2023-05-21T04:51:57.092Z,20.91
2023-05-21T04:54:24.340Z,20.95
2023-05-21T04:56:51.779Z,21.10
2023-05-21T04:59:19.057Z,21.26
2023-05-21T05:01:46.497Z,21.47
2023-05-21T05:04:13.630Z,21.67
2023-05-21T05:06:40.820Z,21.79
2023-05-21T05:09:08.899Z,21.83
2023-05-21T05:11:36.270Z,21.95
2023-05-21T05:14:10.186Z,22.13
2023-05-21T05:16:38.471Z,22.28
2023-05-21T05:19:05.878Z,22.46
2023-05-21T05:21:33.420Z,22.66
2023-05-21T05:24:01.071Z,22.86
2023-05-21T05:26:29.700Z,22.92
2023-05-21T05:28:56.918Z,22.84
2023-05-21T05:31:24.357Z,22.73
2023-05-21T05:33:53.291Z,22.78
2023-05-21T05:36:22.750Z,22.89
2023-05-21T05:38:50.113Z,23.08
2023-05-21T05:41:17.381Z,23.32
2023-05-21T05:43:44.850Z,23.49
2023-05-21T05:46:12.522Z,23.59
2023-05-21T05:48:39.999Z,23.77
2023-05-21T05:51:07.210Z,24.04
2023-05-21T05:53:34.592Z,24.34
2023-05-21T05:56:01.857Z,24.50
2023-05-21T05:58:31.244Z,24.60
2023-05-21T06:01:13.811Z,24.74
2023-05-21T06:03:41.322Z,24.65
2023-05-21T06:06:17.498Z,24.49
2023-05-21T06:08:45.318Z,24.43
2023-05-21T06:11:17.814Z,24.49
2023-05-21T06:13:45.889Z,24.71
2023-05-21T06:16:14.268Z,24.92
2023-05-21T06:18:41.790Z,25.09
2023-05-21T06:21:09.294Z,25.29
2023-05-21T06:23:38.482Z,25.49
2023-05-21T06:26:07.677Z,25.67
2023-05-21T06:28:34.941Z,25.89
2023-05-21T06:31:02.450Z,26.11
2023-05-21T06:33:30.402Z,26.19
2023-05-21T06:35:57.655Z,26.24
2023-05-21T06:38:24.799Z,26.37
2023-05-21T06:40:54.029Z,26.51
2023-05-21T06:43:44.035Z,26.61
2023-05-21T06:46:30.116Z,26.76
2023-05-21T06:48:57.746Z,26.92
2023-05-21T06:51:25.520Z,26.82
2023-05-21T06:53:53.246Z,26.54
2023-05-21T06:56:21.885Z,26.41
2023-05-21T06:58:50.245Z,26.31
2023-05-21T07:01:17.392Z,26.13
2023-05-21T07:03:45.466Z,25.95
2023-05-21T07:06:12.698Z,25.95
2023-05-21T07:08:39.796Z,26.10
2023-05-21T07:11:06.978Z,26.20
2023-05-21T07:13:36.599Z,26.30
2023-05-21T07:16:03.859Z,26.40
2023-05-21T07:18:31.538Z,26.44
2023-05-21T07:20:58.702Z,26.61
2023-05-21T07:23:31.149Z,26.77
2023-05-21T07:25:58.867Z,26.85
2023-05-21T07:28:26.052Z,26.89
2023-05-21T07:30:53.323Z,26.84
2023-05-21T07:33:23.559Z,26.79
2023-05-21T07:35:52.610Z,26.86
2023-05-21T07:38:19.800Z,26.81
2023-05-21T07:40:47.211Z,26.78
2023-05-21T07:43:14.704Z,26.82
2023-05-21T07:45:42.059Z,26.93
2023-05-21T07:48:09.767Z,26.97
2023-05-21T07:50:40.354Z,27.01
2023-05-21T07:53:07.716Z,27.13
2023-05-21T07:55:35.414Z,27.20
2023-05-21T07:58:02.822Z,27.15
2023-05-21T08:00:43.638Z,26.92
2023-05-21T08:03:12.252Z,26.61
2023-05-21T08:05:39.607Z,26.43
2023-05-21T08:08:06.841Z,26.38
2023-05-21T08:10:34.113Z,26.42
2023-05-21T08:13:01.660Z,26.50
2023-05-21T08:15:28.761Z,26.55
2023-05-21T08:17:56.244Z,26.64
2023-05-21T08:20:23.499Z,26.72
2023-05-21T08:22:50.768Z,26.74
2023-05-21T08:25:18.010Z,26.69
2023-05-21T08:27:45.177Z,26.63
2023-05-21T08:30:13.547Z,26.66
2023-05-21T08:32:40.892Z,26.72
2023-05-21T08:35:08.864Z,26.82
2023-05-21T08:37:54.754Z,26.81
2023-05-21T08:40:47.610Z,26.82
2023-05-21T08:43:16.807Z,26.82
2023-05-21T08:45:53.457Z,26.79
2023-05-21T08:48:23.459Z,26.74
2023-05-21T08:50:54.840Z,26.77
2023-05-21T08:53:29.480Z,26.87
2023-05-21T08:56:00.362Z,26.99
2023-05-21T08:58:49.383Z,27.01
2023-05-21T09:01:20.072Z,27.03
2023-05-21T09:03:53.489Z,26.95
2023-05-21T09:06:21.837Z,26.93
2023-05-21T09:08:58.237Z,26.91
2023-05-21T09:11:30.403Z,26.86
2023-05-21T09:14:00.602Z,26.81
2023-05-21T09:16:34.654Z,26.81
2023-05-21T09:19:08.433Z,26.80
2023-05-21T09:21:35.881Z,26.84
2023-05-21T09:24:06.585Z,26.96
2023-05-21T09:26:35.071Z,27.04
2023-05-21T09:29:07.244Z,27.01
2023-05-21T09:31:40.479Z,26.88
2023-05-21T09:34:07.708Z,26.70
2023-05-21T09:36:38.703Z,26.56
2023-05-21T09:39:05.920Z,26.46
2023-05-21T09:41:35.176Z,26.42
2023-05-21T09:44:02.907Z,26.36
2023-05-21T09:46:40.824Z,26.31
2023-05-21T09:49:23.446Z,26.23
2023-05-21T09:51:51.032Z,26.14
2023-05-21T09:54:18.166Z,25.99
2023-05-21T09:56:46.332Z,25.77
2023-05-21T09:59:13.639Z,25.58
2023-05-21T10:01:41.286Z,25.41
2023-05-21T10:04:09.342Z,25.30
2023-05-21T10:06:42.470Z,25.24
2023-05-21T10:09:14.697Z,25.22
2023-05-21T10:11:45.151Z,25.25
2023-05-21T10:14:19.924Z,25.34
2023-05-21T10:16:47.909Z,25.37
2023-05-21T10:19:16.475Z,25.35
2023-05-21T10:21:45.099Z,25.34
2023-05-21T10:24:14.039Z,25.24
2023-05-21T10:26:42.009Z,25.12
2023-05-21T10:29:10.304Z,25.04
2023-05-21T10:31:39.210Z,24.95
2023-05-21T10:34:06.948Z,24.86
2023-05-21T10:36:36.869Z,24.79
2023-05-21T10:39:04.506Z,24.79
2023-05-21T10:41:42.908Z,24.77
2023-05-21T10:44:28.703Z,24.80
2023-05-21T10:47:30.254Z,24.77
2023-05-21T10:50:38.205Z,24.71
2023-05-21T10:53:22.559Z,24.69
2023-05-21T10:56:11.618Z,24.69
2023-05-21T10:59:04.370Z,24.83
2023-05-21T11:01:47.036Z,25.16
2023-05-21T11:04:15.967Z,25.49
2023-05-21T11:06:48.811Z,25.52
2023-05-21T11:09:16.645Z,25.43
2023-05-21T11:11:45.210Z,25.51
2023-05-21T11:14:29.054Z,25.63
2023-05-21T11:16:57.277Z,25.83
2023-05-21T11:19:43.581Z,26.02
2023-05-21T11:22:27.580Z,26.16
2023-05-21T11:24:56.427Z,26.17
2023-05-21T11:27:36.988Z,26.11
2023-05-21T11:30:05.808Z,25.95
2023-05-21T11:32:33.247Z,25.75
2023-05-21T11:35:03.692Z,25.64
2023-05-21T11:37:33.383Z,25.60
2023-05-21T11:40:21.405Z,25.64
2023-05-21T11:42:56.524Z,25.56
2023-05-21T11:45:32.980Z,25.45
2023-05-21T11:48:02.936Z,25.39
2023-05-21T11:50:32.292Z,25.34
2023-05-21T11:53:00.301Z,25.32
2023-05-21T11:55:28.084Z,25.31
2023-05-21T11:57:55.847Z,25.28
2023-05-21T12:00:23.303Z,25.24
2023-05-21T12:02:54.251Z,25.15
2023-05-21T12:05:22.646Z,25.12
2023-05-21T12:07:50.660Z,25.17
2023-05-21T12:10:22.019Z,25.23
2023-05-21T12:12:55.775Z,25.33
2023-05-21T12:15:25.370Z,25.49
2023-05-21T12:17:55.372Z,25.62
2023-05-21T12:20:23.450Z,25.67
2023-05-21T12:22:50.806Z,25.67
2023-05-21T12:25:20.349Z,25.64
2023-05-21T12:27:51.163Z,25.65
2023-05-21T12:30:18.592Z,25.62
2023-05-21T12:32:48.032Z,25.61
2023-05-21T12:35:23.207Z,25.56
2023-05-21T12:37:51.285Z,25.44
2023-05-21T12:40:20.336Z,25.36
2023-05-21T12:42:47.665Z,25.26
2023-05-21T12:45:14.978Z,25.12
2023-05-21T12:47:47.986Z,24.97
2023-05-21T12:50:15.170Z,24.78
2023-05-21T12:52:43.277Z,24.61
2023-05-21T12:55:17.285Z,24.48
2023-05-21T12:57:44.813Z,24.38
2023-05-21T13:00:14.020Z,24.28
2023-05-21T13:02:44.839Z,24.21
2023-05-21T13:05:19.860Z,24.15
2023-05-21T13:07:48.172Z,24.08
2023-05-21T13:10:17.217Z,24.06
2023-05-21T13:12:46.306Z,24.07
2023-05-21T13:15:13.566Z,24.05
2023-05-21T13:17:40.748Z,24.07
2023-05-21T13:20:26.674Z,24.10
2023-05-21T13:22:54.300Z,24.12
2023-05-21T13:25:25.111Z,24.09
2023-05-21T13:27:53.777Z,24.06
2023-05-21T13:30:24.477Z,24.07
2023-05-21T13:32:52.771Z,24.05
2023-05-21T13:35:20.130Z,24.01
2023-05-21T13:37:47.538Z,24.00
2023-05-21T13:40:16.084Z,23.99
2023-05-21T13:42:45.557Z,23.98
2023-05-21T13:45:15.168Z,23.98
2023-05-21T13:47:43.240Z,23.96
2023-05-21T13:50:11.020Z,23.93
2023-05-21T13:52:38.669Z,23.93
2023-05-21T13:55:06.674Z,23.97
2023-05-21T13:57:34.184Z,24.03
2023-05-21T14:00:01.724Z,24.10
2023-05-21T14:02:34.873Z,24.16
2023-05-21T14:05:02.310Z,24.21
2023-05-21T14:07:29.376Z,24.20
2023-05-21T14:09:56.966Z,24.19
2023-05-21T14:12:24.241Z,24.21
2023-05-21T14:14:51.806Z,24.20
2023-05-21T14:17:18.900Z,24.19
2023-05-21T14:19:46.023Z,24.15
2023-05-21T14:22:13.664Z,24.02
2023-05-21T14:24:40.918Z,23.94
2023-05-21T14:27:08.022Z,23.86
2023-05-21T14:29:35.396Z,23.78
2023-05-21T14:32:02.657Z,23.74
2023-05-21T14:34:30.004Z,23.73
2023-05-21T14:36:57.097Z,23.75
2023-05-21T14:39:26.652Z,23.72
2023-05-21T14:41:54.115Z,23.72
2023-05-21T14:44:21.282Z,23.72
2023-05-21T14:46:48.526Z,23.71
2023-05-21T14:49:15.683Z,23.65
2023-05-21T14:51:43.951Z,23.62
2023-05-21T14:54:11.305Z,23.59
2023-05-21T14:56:38.418Z,23.55
2023-05-21T14:59:05.697Z,23.56
2023-05-21T15:01:32.821Z,23.56
2023-05-21T15:04:00.226Z,23.52
2023-05-21T15:06:28.134Z,23.46
2023-05-21T15:08:55.257Z,23.41
2023-05-21T15:11:22.674Z,23.33
2023-05-21T15:13:49.871Z,23.30
2023-05-21T15:16:18.862Z,23.29
2023-05-21T15:18:47.080Z,23.25
2023-05-21T15:21:14.180Z,23.18
2023-05-21T15:23:41.380Z,23.03
2023-05-21T15:26:09.453Z,22.88
2023-05-21T15:28:36.542Z,22.73
2023-05-21T15:31:03.640Z,22.57
2023-05-21T15:33:31.964Z,22.45
2023-05-21T15:35:59.149Z,22.34
2023-05-21T15:38:26.404Z,22.28
2023-05-21T15:40:53.904Z,22.26
2023-05-21T15:43:21.481Z,22.26
2023-05-21T15:45:48.715Z,22.26
2023-05-21T15:48:20.174Z,22.26
2023-05-21T15:50:47.254Z,22.23
2023-05-21T15:53:14.315Z,22.20
2023-05-21T15:55:41.418Z,22.19
2023-05-21T15:58:08.618Z,22.16
2023-05-21T16:00:35.769Z,22.12
2023-05-21T16:03:03.170Z,22.07
2023-05-21T16:05:30.350Z,21.99
2023-05-21T16:07:57.452Z,21.92
2023-05-21T16:10:25.112Z,21.88
2023-05-21T16:12:52.960Z,21.84
2023-05-21T16:15:20.308Z,21.78
2023-05-21T16:17:47.562Z,21.70
2023-05-21T16:20:14.849Z,21.62
2023-05-21T16:22:42.047Z,21.53
2023-05-21T16:25:09.541Z,21.46
2023-05-21T16:27:36.729Z,21.39
2023-05-21T16:30:04.356Z,21.32
2023-05-21T16:32:31.569Z,21.27
2023-05-21T16:34:58.870Z,21.17
2023-05-21T16:37:26.913Z,20.97
2023-05-21T16:39:54.064Z,20.80
2023-05-21T16:42:21.710Z,20.68
2023-05-21T16:44:48.883Z,20.54
2023-05-21T16:47:16.181Z,20.40
2023-05-21T16:49:43.328Z,20.30
2023-05-21T16:52:10.783Z,20.22
2023-05-21T16:54:37.897Z,20.08
2023-05-21T16:57:06.849Z,19.93
2023-05-21T16:59:34.164Z,19.73
2023-05-21T17:02:01.620Z,19.43
2023-05-21T17:04:29.516Z,18.80
2023-05-21T17:06:57.327Z,18.23
2023-05-21T17:09:24.476Z,17.87
2023-05-21T17:11:51.617Z,17.62
2023-05-21T17:14:30.356Z,17.48
2023-05-21T17:17:02.781Z,17.39
2023-05-21T17:19:30.019Z,17.38
2023-05-21T17:22:00.522Z,17.38
2023-05-21T17:24:29.352Z,17.39
2023-05-21T17:26:56.501Z,17.41
2023-05-21T17:29:23.582Z,17.41
2023-05-21T17:31:51.130Z,17.40
2023-05-21T17:34:18.637Z,17.40
2023-05-21T17:36:46.012Z,17.36
2023-05-21T17:39:13.760Z,17.28
2023-05-21T17:41:41.749Z,17.22
2023-05-21T17:44:08.950Z,17.18
2023-05-21T17:46:36.306Z,17.15
2023-05-21T17:49:03.542Z,17.15
2023-05-21T17:51:31.649Z,17.13
2023-05-21T17:53:59.065Z,17.08
2023-05-21T17:56:27.189Z,17.03
2023-05-21T17:58:54.397Z,17.00
2023-05-21T18:01:21.706Z,16.97
2023-05-21T18:03:48.861Z,16.97
2023-05-21T18:06:16.043Z,16.96
2023-05-21T18:08:43.209Z,16.92
2023-05-21T18:11:10.492Z,16.90
2023-05-21T18:13:37.716Z,16.83
2023-05-21T18:16:05.302Z,16.72
2023-05-21T18:18:32.530Z,16.60
2023-05-21T18:21:00.003Z,16.53
2023-05-21T18:23:28.617Z,16.45
2023-05-21T18:25:55.951Z,16.40
2023-05-21T18:28:23.010Z,16.35
2023-05-21T18:30:50.114Z,16.32
2023-05-21T18:33:17.253Z,16.26
2023-05-21T18:35:44.791Z,16.23
2023-05-21T18:38:11.980Z,16.19
2023-05-21T18:40:39.504Z,16.17
2023-05-21T18:43:06.662Z,16.12
2023-05-21T18:45:34.218Z,16.06
2023-05-21T18:48:03.249Z,16.03
2023-05-21T18:50:31.956Z,16.01
2023-05-21T18:52:59.124Z,15.94
2023-05-21T18:55:26.757Z,15.90
2023-05-21T18:57:56.058Z,15.88
2023-05-21T19:00:23.381Z,15.86
2023-05-21T19:02:50.637Z,15.80
2023-05-21T19:05:17.797Z,15.76
2023-05-21T19:07:44.977Z,15.75
2023-05-21T19:10:12.766Z,15.73
2023-05-21T19:12:42.034Z,15.72
2023-05-21T19:15:10.250Z,15.71
2023-05-21T19:17:39.241Z,15.68
2023-05-21T19:20:09.931Z,15.67
2023-05-21T19:22:37.378Z,15.66
2023-05-21T19:25:04.897Z,15.66
2023-05-21T19:27:32.264Z,15.65
2023-05-21T19:30:00.025Z,15.65
2023-05-21T19:32:27.219Z,15.66
2023-05-21T19:34:54.308Z,15.67
2023-05-21T19:37:21.532Z,15.64
2023-05-21T19:39:51.136Z,15.65
2023-05-21T19:42:21.617Z,15.64
2023-05-21T19:44:48.922Z,15.64
2023-05-21T19:47:16.163Z,15.63
2023-05-21T19:49:43.375Z,15.62
2023-05-21T19:52:10.699Z,15.60
2023-05-21T19:54:37.926Z,15.58
2023-05-21T19:57:05.309Z,15.57
2023-05-21T19:59:32.703Z,15.56
2023-05-21T20:01:59.992Z,15.53
2023-05-21T20:04:28.408Z,15.53
2023-05-21T20:06:55.550Z,15.55
2023-05-21T20:09:22.718Z,15.53
2023-05-21T20:11:49.928Z,15.53
2023-05-21T20:14:17.081Z,15.53
2023-05-21T20:16:47.214Z,15.54
2023-05-21T20:19:15.463Z,15.54
2023-05-21T20:21:43.025Z,15.52
2023-05-21T20:24:11.544Z,15.53
2023-05-21T20:26:40.167Z,15.53
2023-05-21T20:29:08.249Z,15.54
2023-05-21T20:31:36.042Z,15.55
2023-05-21T20:34:07.932Z,15.57
2023-05-21T20:36:36.213Z,15.56
2023-05-21T20:39:03.863Z,15.56
2023-05-21T20:41:36.194Z,15.56
2023-05-21T20:44:07.382Z,15.55
2023-05-21T20:46:41.376Z,15.53
2023-05-21T20:49:09.960Z,15.50
2023-05-21T20:51:37.177Z,15.48
2023-05-21T20:54:04.571Z,15.48
2023-05-21T20:56:41.408Z,15.47
2023-05-21T20:59:11.486Z,15.45
2023-05-21T21:01:39.348Z,15.42
2023-05-21T21:04:06.754Z,15.44
2023-05-21T21:06:35.179Z,15.43
2023-05-21T21:09:02.377Z,15.42
2023-05-21T21:11:29.471Z,15.41
2023-05-21T21:13:56.726Z,15.37
2023-05-21T21:16:23.994Z,15.35
2023-05-21T21:18:51.325Z,15.32
2023-05-21T21:21:18.607Z,15.29
2023-05-21T21:23:45.864Z,15.27
2023-05-21T21:26:13.189Z,15.25
2023-05-21T21:28:40.698Z,15.22
2023-05-21T21:31:10.287Z,15.21
2023-05-21T21:33:39.063Z,15.19
2023-05-21T21:36:06.917Z,15.18
2023-05-21T21:38:34.375Z,15.19
2023-05-21T21:41:01.526Z,15.19
2023-05-21T21:43:28.700Z,15.19
2023-05-21T21:45:56.090Z,15.17
2023-05-21T21:48:23.209Z,15.16
2023-05-21T21:50:54.863Z,15.14
2023-05-21T21:53:22.850Z,15.14
2023-05-21T21:55:51.294Z,15.15
2023-05-21T21:58:18.851Z,15.15
2023-05-21T22:00:47.591Z,15.16
2023-05-21T22:03:15.188Z,15.14
2023-05-21T22:05:42.985Z,15.13
2023-05-21T22:08:10.277Z,15.10
2023-05-21T22:10:38.743Z,15.07
2023-05-21T22:13:06.172Z,15.07
2023-05-21T22:15:33.558Z,15.06
2023-05-21T22:18:02.692Z,15.06
2023-05-21T22:20:30.049Z,15.06
2023-05-21T22:22:58.698Z,15.06
2023-05-21T22:25:26.114Z,15.05
2023-05-21T22:27:53.450Z,15.04
2023-05-21T22:30:20.978Z,15.04
2023-05-21T22:32:48.383Z,15.03
2023-05-21T22:35:15.799Z,15.02
2023-05-21T22:37:47.656Z,15.00
2023-05-21T22:40:15.097Z,15.01
2023-05-21T22:42:42.307Z,15.00
2023-05-21T22:45:10.232Z,14.99
2023-05-21T22:47:39.907Z,14.98
2023-05-21T22:50:08.493Z,14.97
2023-05-21T22:52:38.449Z,14.96
2023-05-21T22:55:06.505Z,14.98
2023-05-21T22:57:33.720Z,14.99
2023-05-21T23:00:00.935Z,14.97
2023-05-21T23:02:29.090Z,14.96
2023-05-21T23:04:58.240Z,14.97
2023-05-21T23:07:26.062Z,14.98
2023-05-21T23:09:53.342Z,14.99
2023-05-21T23:12:20.623Z,15.00
2023-05-21T23:14:47.786Z,15.01
2023-05-21T23:17:15.131Z,15.03
2023-05-21T23:19:42.936Z,15.06
2023-05-21T23:22:12.404Z,15.09
2023-05-21T23:24:39.672Z,15.12
2023-05-21T23:27:06.830Z,15.14
2023-05-21T23:29:34.967Z,15.14
2023-05-21T23:32:05.345Z,15.15
2023-05-21T23:34:32.852Z,15.16
2023-05-21T23:37:00.711Z,15.16
2023-05-21T23:39:31.372Z,15.17
2023-05-21T23:41:58.836Z,15.18
2023-05-21T23:44:26.115Z,15.18
2023-05-21T23:46:53.266Z,15.17
2023-05-21T23:49:20.416Z,15.17
2023-05-21T23:51:50.878Z,15.17
2023-05-21T23:54:18.316Z,15.18
2023-05-21T23:56:46.088Z,15.18
2023-05-21T23:59:13.934Z,15.18
